IAD weather

Washington Dulles International Airport
Washington, District of Columbia, United States

Public forecast

Using degrees Fahrenheit for public forecast. Weather courtesy of forecast.io.

METAR (pilot weather report)

Retrieved 2018/10/19 07:52 UTC (36 minutes ago):

KIAD 190752Z 31003KT 10SM CLR 02/02 A3037 RMK AO2 SLP285 T00220017

TAF (pilot weather forecast)

Retrieved 2018/10/19 06:24 UTC (2 hours ago):

TAF KIAD 190521Z 1906/2012 12004KT P6SM SKC FM191500 20006KT P6SM SKC FM200000 21007KT P6SM OVC150 FM200600 21007KT P6SM -SHRA OVC050